createdAt,value
2023-08-12T11:00:31.410Z,4.53
2023-08-12T11:03:37.907Z,4.57
2023-08-12T11:06:47.209Z,4.63
2023-08-12T11:09:56.341Z,5.63
2023-08-12T11:12:59.435Z,5.35
2023-08-12T11:16:10.922Z,5.28
2023-08-12T11:19:12.718Z,5.10
2023-08-12T11:22:15.265Z,5.05
2023-08-12T11:25:19.145Z,5.20
2023-08-12T11:28:22.164Z,5.00
2023-08-12T11:31:23.975Z,5.25
2023-08-12T11:34:25.728Z,4.53
2023-08-12T11:37:27.563Z,5.00
2023-08-12T11:40:30.261Z,4.80
2023-08-12T11:43:35.241Z,4.40
2023-08-12T11:46:37.086Z,4.78
2023-08-12T11:49:38.709Z,4.80
2023-08-12T11:52:41.161Z,4.53
2023-08-12T11:55:43.430Z,4.07
2023-08-12T11:58:52.968Z,4.03
2023-08-12T12:01:55.932Z,4.40
2023-08-12T12:04:57.572Z,4.03
2023-08-12T12:08:02.058Z,3.90
2023-08-12T12:11:07.317Z,3.67
2023-08-12T12:14:10.224Z,4.03
2023-08-12T12:17:13.663Z,3.90
2023-08-12T12:20:15.472Z,3.85
2023-08-12T12:23:17.166Z,4.10
2023-08-12T12:26:18.777Z,3.70
2023-08-12T12:29:20.408Z,3.95
2023-08-12T12:32:22.408Z,4.03
2023-08-12T12:35:25.036Z,4.18
2023-08-12T12:38:27.585Z,3.60
2023-08-12T12:41:29.346Z,4.25
2023-08-12T12:44:30.899Z,3.90
2023-08-12T12:47:32.516Z,3.75
2023-08-12T12:50:34.117Z,3.70
2023-08-12T12:53:35.707Z,3.50
2023-08-12T12:56:37.285Z,3.50
2023-08-12T12:59:38.867Z,3.60
2023-08-12T13:02:43.056Z,3.38
2023-08-12T13:05:45.209Z,3.42
2023-08-12T13:08:46.862Z,3.15
2023-08-12T13:11:48.444Z,3.30
2023-08-12T13:14:49.982Z,3.20
2023-08-12T13:17:51.607Z,2.60
2023-08-12T13:20:53.304Z,2.70
2023-08-12T13:23:56.335Z,2.55
2023-08-12T13:26:59.404Z,2.75
2023-08-12T13:30:01.962Z,2.30
2023-08-12T13:33:04.514Z,2.13
2023-08-12T13:36:06.228Z,2.35
2023-08-12T13:39:07.861Z,2.30
2023-08-12T13:42:09.423Z,1.70
2023-08-12T13:45:12.278Z,1.50
2023-08-12T13:48:13.781Z,1.58
2023-08-12T13:51:15.333Z,1.50
2023-08-12T13:54:16.986Z,1.45
2023-08-12T13:57:18.558Z,1.48
2023-08-12T14:00:20.304Z,1.30
2023-08-12T14:03:21.930Z,1.52
2023-08-12T14:06:23.558Z,1.30
2023-08-12T14:09:25.108Z,1.23
2023-08-12T14:12:26.933Z,1.30
2023-08-12T14:15:28.602Z,1.20
2023-08-12T14:18:30.119Z,1.20
2023-08-12T14:21:31.626Z,1.20
2023-08-12T14:24:33.238Z,1.20
2023-08-12T14:27:34.790Z,1.25
2023-08-12T14:30:37.806Z,1.10
2023-08-12T14:33:39.508Z,1.65
2023-08-12T14:36:41.064Z,1.40
2023-08-12T14:39:42.621Z,1.30
2023-08-12T14:42:44.245Z,1.20
2023-08-12T14:45:46.871Z,1.42
2023-08-12T14:48:48.406Z,1.17
2023-08-12T14:51:49.965Z,1.00
2023-08-12T14:54:51.837Z,1.50
2023-08-12T14:57:53.411Z,1.00
2023-08-12T15:00:55.106Z,1.30
2023-08-12T15:03:56.886Z,1.40
2023-08-12T15:06:58.769Z,1.20
2023-08-12T15:10:00.460Z,1.45
2023-08-12T15:13:02.161Z,1.17
2023-08-12T15:16:04.009Z,1.42
2023-08-12T15:19:05.550Z,1.38
2023-08-12T15:22:07.148Z,1.20
2023-08-12T15:25:09.603Z,1.30
2023-08-12T15:28:11.248Z,1.38
2023-08-12T15:31:14.049Z,1.25
2023-08-12T15:34:15.664Z,1.30
2023-08-12T15:37:17.217Z,1.20
2023-08-12T15:40:20.999Z,1.10
2023-08-12T15:43:22.577Z,1.25
2023-08-12T15:46:24.171Z,1.10
2023-08-12T15:49:25.883Z,1.10
2023-08-12T15:52:27.626Z,1.20
2023-08-12T15:55:29.166Z,1.17
2023-08-12T15:58:30.753Z,1.23
2023-08-12T16:01:33.216Z,1.17
2023-08-12T16:04:34.837Z,1.30
2023-08-12T16:07:36.692Z,1.23
2023-08-12T16:10:39.103Z,1.38
2023-08-12T16:13:40.775Z,1.40
2023-08-12T16:16:42.510Z,1.38
2023-08-12T16:19:46.555Z,1.80
2023-08-12T16:22:48.281Z,1.60
2023-08-12T16:25:50.011Z,1.60
2023-08-12T16:28:51.742Z,1.58
2023-08-12T16:31:53.383Z,1.70
2023-08-12T16:34:54.984Z,1.70
2023-08-12T16:37:56.601Z,1.85
2023-08-12T16:40:58.252Z,1.70
2023-08-12T16:43:59.807Z,2.10
2023-08-12T16:47:01.647Z,1.80
2023-08-12T16:50:03.420Z,1.73
2023-08-12T16:53:05.064Z,2.08
2023-08-12T16:56:06.699Z,1.90
2023-08-12T16:59:08.299Z,2.05
2023-08-12T17:02:10.400Z,2.17
2023-08-12T17:05:12.092Z,2.28
2023-08-12T17:08:13.667Z,2.70
2023-08-12T17:11:15.373Z,2.50
2023-08-12T17:14:16.955Z,2.50
2023-08-12T17:17:18.535Z,2.67
2023-08-12T17:20:20.187Z,2.55
2023-08-12T17:23:21.806Z,2.20
2023-08-12T17:26:23.454Z,2.35
2023-08-12T17:29:25.204Z,2.47
2023-08-12T17:32:26.939Z,1.90
2023-08-12T17:35:28.511Z,2.20
2023-08-12T17:38:30.306Z,2.10
2023-08-12T17:41:32.074Z,2.00
2023-08-12T17:44:33.728Z,2.10
2023-08-12T17:47:35.291Z,2.03
2023-08-12T17:50:36.913Z,2.20
2023-08-12T17:53:38.498Z,1.83
2023-08-12T17:56:40.084Z,1.65
2023-08-12T17:59:41.655Z,1.90
2023-08-12T18:02:43.361Z,1.73
2023-08-12T18:05:45.167Z,2.15
2023-08-12T18:08:47.267Z,1.50
2023-08-12T18:11:48.865Z,1.55
2023-08-12T18:14:50.509Z,1.60
2023-08-12T18:17:52.221Z,1.52
2023-08-12T18:20:53.831Z,1.27
2023-08-12T18:23:55.771Z,1.10
2023-08-12T18:26:57.478Z,1.23
2023-08-12T18:29:59.120Z,1.10
2023-08-12T18:33:04.117Z,1.20
2023-08-12T18:36:06.106Z,1.10
2023-08-12T18:39:07.961Z,1.20
2023-08-12T18:42:11.454Z,1.20
2023-08-12T18:45:13.452Z,1.00
2023-08-12T18:48:15.055Z,1.00
2023-08-12T18:51:16.995Z,1.27
2023-08-12T18:54:18.578Z,0.90
2023-08-12T18:57:20.185Z,0.85
2023-08-12T19:00:21.913Z,0.80
2023-08-12T19:03:23.653Z,1.00
2023-08-12T19:06:25.391Z,1.15
2023-08-12T19:09:27.573Z,0.70
2023-08-12T19:12:29.207Z,0.90
2023-08-12T19:15:30.931Z,0.88
2023-08-12T19:18:32.611Z,0.80
2023-08-12T19:21:34.228Z,0.70
2023-08-12T19:24:35.961Z,1.00
2023-08-12T19:27:37.523Z,1.20
2023-08-12T19:30:39.084Z,0.82
2023-08-12T19:33:41.274Z,0.85
2023-08-12T19:36:42.889Z,0.90
2023-08-12T19:39:44.486Z,1.13
2023-08-12T19:42:46.422Z,0.98
2023-08-12T19:45:48.006Z,0.98
2023-08-12T19:48:49.782Z,1.00
2023-08-12T19:51:51.363Z,1.05
2023-08-12T19:54:52.942Z,1.23
2023-08-12T19:57:54.518Z,0.80
2023-08-12T20:00:56.214Z,1.00
2023-08-12T20:03:58.052Z,0.90
2023-08-12T20:06:59.915Z,0.70
2023-08-12T20:10:02.186Z,1.00
2023-08-12T20:13:04.032Z,0.80
2023-08-12T20:16:05.573Z,1.00
2023-08-12T20:19:07.185Z,0.80
2023-08-12T20:22:10.915Z,0.93
2023-08-12T20:25:14.367Z,1.08
2023-08-12T20:28:15.912Z,1.08
2023-08-12T20:31:17.575Z,0.90
2023-08-12T20:34:19.175Z,1.00
2023-08-12T20:37:20.929Z,1.00
2023-08-12T20:40:22.550Z,1.00
2023-08-12T20:43:25.315Z,0.95
2023-08-12T20:46:26.928Z,1.00
2023-08-12T20:49:28.543Z,1.05
2023-08-12T20:52:33.744Z,0.90
2023-08-12T20:55:35.671Z,1.00
2023-08-12T20:58:37.240Z,1.08
2023-08-12T21:01:38.928Z,1.40
2023-08-12T21:04:40.545Z,1.00
2023-08-12T21:07:42.307Z,0.93
2023-08-12T21:10:43.928Z,1.00
2023-08-12T21:13:45.533Z,0.88
2023-08-12T21:16:47.811Z,0.95
2023-08-12T21:19:49.407Z,1.00
2023-08-12T21:22:51.030Z,1.10
2023-08-12T21:25:52.636Z,1.42
2023-08-12T21:28:54.224Z,1.30
2023-08-12T21:31:55.867Z,1.10
2023-08-12T21:34:57.462Z,1.00
2023-08-12T21:37:59.207Z,1.20
2023-08-12T21:41:00.808Z,1.30
2023-08-12T21:44:02.612Z,1.05
2023-08-12T21:47:04.241Z,1.40
2023-08-12T21:50:06.648Z,1.60
2023-08-12T21:53:08.164Z,1.38
2023-08-12T21:56:10.368Z,1.30
2023-08-12T21:59:11.916Z,1.00
2023-08-12T22:02:23.021Z,1.13
2023-08-12T22:05:24.710Z,1.27
2023-08-12T22:08:26.315Z,1.23
2023-08-12T22:11:28.843Z,1.30
2023-08-12T22:14:30.772Z,1.25
2023-08-12T22:17:32.375Z,1.20
2023-08-12T22:20:34.088Z,1.30
2023-08-12T22:23:36.951Z,1.42
2023-08-12T22:26:38.482Z,1.00
2023-08-12T22:29:40.355Z,1.30
2023-08-12T22:32:43.554Z,1.40
2023-08-12T22:35:45.224Z,1.40
2023-08-12T22:38:47.848Z,1.30
2023-08-12T22:41:50.250Z,1.23
2023-08-12T22:44:51.827Z,1.20
2023-08-12T22:47:53.511Z,1.60
2023-08-12T22:50:55.089Z,1.30
2023-08-12T22:53:58.783Z,1.40
2023-08-12T22:57:00.899Z,1.58
